Time;durP1;ratioP1;P1;durP2;ratioP2;P2;SDS_P1;SDS_P2;PMS_P1;PMS_P2;Temp;Humidity;BMP_temperature;BMP_pressure;BME280_temperature;BME280_humidity;BME280_pressure;Samples;Min_cycle;Max_cycle;Signal;HPM_P1;HPM_P2
2021/03/28 00:01:36;;;;;;;1.30;1.03;;;7.80;89.10;;;;;;5110889;28;20974;-66
2021/03/28 00:04:08;;;;;;;1.20;1.07;;;7.70;88.90;;;;;;5111195;28;20455;-66
2021/03/28 00:06:36;;;;;;;1.47;1.23;;;7.70;89.60;;;;;;5113632;28;20908;-67
2021/03/28 00:09:10;;;;;;;1.20;1.00;;;7.60;89.10;;;;;;5111348;28;20522;-66
2021/03/28 00:11:54;;;;;;;1.30;1.17;;;7.60;89.90;;;;;;5113604;28;21074;-66
2021/03/28 00:14:25;;;;;;;1.30;1.10;;;7.60;89.70;;;;;;5111132;28;20463;-66
2021/03/28 00:16:52;;;;;;;1.20;1.00;;;7.50;90.50;;;;;;5113536;28;20454;-66
2021/03/28 00:19:29;;;;;;;1.20;0.90;;;7.30;91.00;;;;;;5110991;28;20456;-66
2021/03/28 00:21:59;;;;;;;1.20;1.00;;;7.20;91.40;;;;;;5113285;28;20454;-66
2021/03/28 00:24:30;;;;;;;1.40;1.30;;;7.20;91.20;;;;;;5110931;28;20559;-66
2021/03/28 00:27:10;;;;;;;1.50;1.27;;;7.30;90.90;;;;;;5113000;28;20523;-67
2021/03/28 00:29:47;;;;;;;1.20;1.00;;;7.50;90.10;;;;;;5110602;28;20465;-66
2021/03/28 00:32:22;;;;;;;1.40;1.20;;;7.40;90.30;;;;;;5112044;28;20465;-66
2021/03/28 00:34:53;;;;;;;5.20;1.30;;;7.50;90.50;;;;;;5109940;28;20456;-66
2021/03/28 00:37:25;;;;;;;1.20;0.90;;;7.30;91.30;;;;;;5112649;28;20459;-66
2021/03/28 00:39:55;;;;;;;1.40;1.20;;;7.10;92.00;;;;;;5110941;28;20874;-66
2021/03/28 00:42:42;;;;;;;1.43;1.13;;;7.10;91.80;;;;;;5112612;28;20455;-65
2021/03/28 00:45:17;;;;;;;2.13;1.10;;;7.00;92.30;;;;;;5110525;28;20460;-65
2021/03/28 00:47:48;;;;;;;1.20;1.03;;;6.90;92.70;;;;;;5112577;28;20488;-66
2021/03/28 00:50:35;;;;;;;2.50;1.20;;;6.90;92.50;;;;;;5110657;28;20456;-66
2021/03/28 00:53:05;;;;;;;1.20;1.00;;;6.80;93.10;;;;;;5112552;28;20552;-66
2021/03/28 00:55:35;;;;;;;1.20;0.90;;;6.80;94.00;;;;;;5110319;28;20448;-66
2021/03/28 00:58:10;;;;;;;1.20;0.90;;;6.60;94.00;;;;;;5112505;28;20456;-66
2021/03/28 01:01:14;;;;;;;1.20;1.00;;;6.70;93.40;;;;;;5110075;28;20864;-67
2021/03/28 01:04:07;;;;;;;1.20;0.90;;;6.70;93.30;;;;;;5110231;28;20455;-65
2021/03/28 01:06:37;;;;;;;1.20;1.00;;;6.60;93.30;;;;;;5112101;28;20542;-66
2021/03/28 01:09:16;;;;;;;1.20;1.03;;;6.50;94.00;;;;;;5109601;28;20468;-66
2021/03/28 01:12:26;;;;;;;1.20;1.00;;;6.50;94.40;;;;;;5112361;28;20515;-66
2021/03/28 01:15:19;;;;;;;1.20;1.00;;;6.40;94.40;;;;;;5110251;28;20856;-66
2021/03/28 01:17:50;;;;;;;1.20;1.00;;;6.30;94.20;;;;;;5110987;28;20467;-65
2021/03/28 01:20:31;;;;;;;1.20;1.00;;;6.20;95.00;;;;;;5109898;28;20457;-66
2021/03/28 01:23:32;;;;;;;1.20;1.00;;;6.00;95.80;;;;;;5112389;28;20469;-66
2021/03/28 01:26:40;;;;;;;1.20;1.10;;;6.00;95.90;;;;;;5079178;28;20468;-66
2021/03/28 01:29:28;;;;;;;1.20;0.93;;;5.90;96.30;;;;;;5046410;28;20548;-65
2021/03/28 01:31:59;;;;;;;1.20;1.00;;;6.00;96.00;;;;;;5051060;28;20456;-66
2021/03/28 01:34:29;;;;;;;1.50;1.10;;;6.00;95.80;;;;;;5110030;28;20453;-65
2021/03/28 01:37:09;;;;;;;1.20;1.00;;;6.00;96.30;;;;;;5112059;28;20447;-66
2021/03/28 01:39:48;;;;;;;1.20;1.00;;;5.80;96.80;;;;;;5109719;28;20453;-66
2021/03/28 01:42:38;;;;;;;1.20;0.90;;;5.70;96.80;;;;;;5111757;28;20995;-65
2021/03/28 01:45:15;;;;;;;1.20;1.00;;;5.70;96.70;;;;;;5109866;28;20485;-66
2021/03/28 01:47:56;;;;;;;1.20;1.00;;;5.80;97.00;;;;;;5110380;28;20491;-66
2021/03/28 01:50:49;;;;;;;1.20;1.00;;;5.70;97.20;;;;;;5109592;28;20454;-65
2021/03/28 01:53:27;;;;;;;1.20;0.90;;;5.90;96.90;;;;;;5111896;28;20546;-66
2021/03/28 01:56:01;;;;;;;1.40;1.10;;;5.80;96.70;;;;;;5109584;28;20468;-66
2021/03/28 01:58:37;;;;;;;1.30;1.20;;;5.60;97.00;;;;;;5111813;28;20471;-66
2021/03/28 02:01:21;;;;;;;1.20;1.00;;;5.50;97.50;;;;;;5111813;28;20936;-66
2021/03/28 02:03:58;;;;;;;1.20;1.00;;;5.50;98.00;;;;;;5108835;28;20455;-66
2021/03/28 02:06:44;;;;;;;1.47;1.10;;;5.40;98.00;;;;;;5111695;28;20845;-66
2021/03/28 02:09:25;;;;;;;1.20;1.00;;;5.30;98.00;;;;;;5109744;28;20509;-66
2021/03/28 02:12:03;;;;;;;1.20;0.97;;;5.20;98.00;;;;;;5111819;28;20833;-66
2021/03/28 02:15:02;;;;;;;1.30;1.10;;;5.20;98.00;;;;;;5109262;28;20876;-66
2021/03/28 02:17:54;;;;;;;1.30;1.10;;;5.20;98.00;;;;;;5099665;28;20454;-66
2021/03/28 02:20:38;;;;;;;1.20;0.90;;;5.20;98.00;;;;;;5109385;28;20452;-65
2021/03/28 02:23:15;;;;;;;1.20;1.00;;;5.20;98.00;;;;;;5111642;28;20465;-66
2021/03/28 02:25:49;;;;;;;1.20;1.00;;;5.20;98.00;;;;;;5109121;28;20452;-65
2021/03/28 02:28:25;;;;;;;1.20;1.00;;;5.30;98.00;;;;;;5111575;28;20946;-65
2021/03/28 02:30:57;;;;;;;1.20;1.00;;;5.30;98.00;;;;;;5109638;28;20510;-65
2021/03/28 02:33:30;;;;;;;1.30;1.10;;;5.30;98.00;;;;;;5111597;28;20462;-66
2021/03/28 02:36:19;;;;;;;1.30;1.17;;;5.40;98.00;;;;;;5109214;28;20462;-65
2021/03/28 02:39:12;;;;;;;1.70;1.00;;;5.50;98.00;;;;;;5108861;28;20876;-66
2021/03/28 02:41:52;;;;;;;1.50;1.40;;;5.60;98.00;;;;;;5111487;28;20451;-65
2021/03/28 02:44:35;;;;;;;1.20;1.00;;;5.90;98.00;;;;;;5109095;28;20459;-67
2021/03/28 02:47:14;;;;;;;1.20;1.00;;;6.00;98.00;;;;;;5111348;28;20506;-65
2021/03/28 02:50:10;;;;;;;1.20;1.00;;;6.00;98.00;;;;;;5108514;28;20461;-66
2021/03/28 02:53:02;;;;;;;2.27;1.47;;;6.00;98.00;;;;;;5111235;28;21066;-66
2021/03/28 02:56:10;;;;;;;1.20;1.00;;;6.00;98.00;;;;;;5107332;28;20449;-66
2021/03/28 02:58:51;;;;;;;1.20;0.90;;;5.80;98.00;;;;;;5106785;28;20492;-65
2021/03/28 03:01:39;;;;;;;1.30;1.10;;;5.80;98.00;;;;;;5114977;28;20466;-65
2021/03/28 03:04:32;;;;;;;1.20;1.20;;;5.80;98.00;;;;;;5112480;28;20459;-66
2021/03/28 03:07:27;;;;;;;1.30;1.10;;;5.90;98.00;;;;;;5114658;28;20513;-66
2021/03/28 03:10:08;;;;;;;1.20;1.10;;;5.80;98.00;;;;;;5112153;28;20487;-66
2021/03/28 03:12:49;;;;;;;1.20;1.00;;;5.90;98.00;;;;;;5114575;28;20952;-66
2021/03/28 03:15:24;;;;;;;1.60;1.43;;;6.00;98.00;;;;;;5112256;28;20456;-66
2021/03/28 03:18:29;;;;;;;1.20;1.00;;;5.90;98.00;;;;;;5114589;28;20450;-66
2021/03/28 03:21:44;;;;;;;1.20;1.10;;;5.80;98.00;;;;;;5111846;28;20505;-66
2021/03/28 03:24:39;;;;;;;1.20;0.90;;;5.60;98.00;;;;;;5084928;28;20474;-66
2021/03/28 03:27:40;;;;;;;1.20;1.00;;;5.60;98.00;;;;;;5114639;28;20557;-66
2021/03/28 03:30:28;;;;;;;1.73;1.63;;;5.50;98.00;;;;;;5106422;28;20455;-66
2021/03/28 03:33:20;;;;;;;1.20;0.90;;;5.70;98.00;;;;;;5114356;28;20854;-66
2021/03/28 03:35:59;;;;;;;3.03;1.43;;;5.70;98.00;;;;;;5112169;28;21445;-66
2021/03/28 03:38:50;;;;;;;1.20;1.00;;;5.80;98.00;;;;;;5114326;28;20442;-66
2021/03/28 03:41:38;;;;;;;1.20;0.90;;;5.70;98.00;;;;;;5114153;28;20451;-66
2021/03/28 03:44:11;;;;;;;1.20;0.90;;;5.80;98.00;;;;;;5111512;28;20461;-66
2021/03/28 03:46:46;;;;;;;1.20;1.00;;;5.80;98.00;;;;;;5113776;28;20492;-66
2021/03/28 03:49:40;;;;;;;1.30;1.20;;;5.80;98.00;;;;;;5111600;28;20534;-66
2021/03/28 03:52:35;;;;;;;1.20;1.00;;;5.90;98.00;;;;;;5113990;28;20459;-66
2021/03/28 03:55:07;;;;;;;1.20;1.10;;;5.90;98.00;;;;;;5111469;28;20461;-65
2021/03/28 03:57:43;;;;;;;1.50;1.30;;;5.80;98.00;;;;;;5113776;28;20458;-66
2021/03/28 04:00:17;;;;;;;1.20;1.10;;;5.90;98.00;;;;;;5093165;28;20512;-65
2021/03/28 04:03:00;;;;;;;1.20;0.90;;;5.70;98.00;;;;;;5113526;28;20989;-66
2021/03/28 04:05:59;;;;;;;1.60;1.20;;;5.50;98.00;;;;;;5111169;28;20458;-66
2021/03/28 04:08:51;;;;;;;2.00;1.67;;;5.60;98.00;;;;;;5113551;28;20486;-66
2021/03/28 04:11:42;;;;;;;1.30;1.17;;;5.70;98.00;;;;;;5100170;28;20543;-66
2021/03/28 04:14:32;;;;;;;2.13;1.10;;;5.70;98.00;;;;;;5110979;28;20464;-66
2021/03/28 04:17:13;;;;;;;1.20;1.00;;;5.90;98.00;;;;;;5102854;28;20458;-66
2021/03/28 04:19:49;;;;;;;1.20;1.00;;;5.70;98.00;;;;;;5110986;28;20459;-66
2021/03/28 04:22:45;;;;;;;1.23;1.00;;;5.50;98.00;;;;;;5113435;27;20491;-65
2021/03/28 04:25:33;;;;;;;1.20;0.90;;;5.30;98.00;;;;;;5094905;28;20462;-66
2021/03/28 04:28:18;;;;;;;1.30;1.20;;;5.30;98.00;;;;;;5113277;28;20517;-66
2021/03/28 04:31:01;;;;;;;1.20;0.90;;;5.30;98.00;;;;;;5111179;28;20453;-65
2021/03/28 04:33:38;;;;;;;1.20;1.00;;;5.30;98.00;;;;;;5113222;28;20459;-66
2021/03/28 04:36:19;;;;;;;1.30;1.10;;;5.20;98.00;;;;;;5110565;28;20510;-66
2021/03/28 04:39:39;;;;;;;1.20;0.90;;;5.10;98.00;;;;;;5113202;28;20566;-66
2021/03/28 04:42:50;;;;;;;1.47;1.10;;;5.10;98.00;;;;;;5056674;28;20456;-66
2021/03/28 04:45:42;;;;;;;1.20;1.00;;;5.10;98.00;;;;;;5081794;28;20480;-66
2021/03/28 04:48:45;;;;;;;1.20;1.00;;;4.80;98.00;;;;;;5112805;28;20480;-66
2021/03/28 04:51:37;;;;;;;1.20;0.97;;;4.60;98.00;;;;;;5110270;28;20479;-65
2021/03/28 04:54:49;;;;;;;1.20;1.00;;;4.60;98.00;;;;;;5099460;28;20458;-65
2021/03/28 04:57:30;;;;;;;1.50;1.20;;;4.50;98.00;;;;;;5112684;28;20488;-66
2021/03/28 05:00:22;;;;;;;1.40;1.30;;;4.50;98.00;;;;;;5108806;28;20455;-66
2021/03/28 05:03:10;;;;;;;1.50;1.43;;;4.50;98.00;;;;;;5112334;28;20477;-65
2021/03/28 05:05:54;;;;;;;1.40;1.30;;;4.50;98.00;;;;;;5110275;28;20469;-66
2021/03/28 05:08:55;;;;;;;1.30;1.07;;;4.70;98.00;;;;;;5112299;28;20480;-65
2021/03/28 05:11:56;;;;;;;1.20;1.00;;;4.80;98.00;;;;;;5110203;28;20595;-66
2021/03/28 05:15:11;;;;;;;1.20;1.00;;;4.90;98.00;;;;;;5109944;28;20453;-66
2021/03/28 05:18:11;;;;;;;1.20;1.10;;;4.60;98.00;;;;;;5111510;28;20859;-66
2021/03/28 05:21:07;;;;;;;1.30;1.13;;;4.40;98.00;;;;;;5109600;28;20453;-66
2021/03/28 05:24:05;;;;;;;1.37;1.33;;;4.30;98.00;;;;;;5076103;28;20813;-66
2021/03/28 05:26:53;;;;;;;1.20;1.10;;;4.20;98.00;;;;;;5083352;28;20460;-66
2021/03/28 05:30:04;;;;;;;2.13;1.57;;;4.30;98.00;;;;;;5109512;28;20488;-66
2021/03/28 05:33:02;;;;;;;1.20;0.90;;;4.30;98.00;;;;;;5112009;28;20495;-65
2021/03/28 05:35:49;;;;;;;1.20;1.00;;;4.30;98.00;;;;;;5109697;28;20451;-66
2021/03/28 05:38:44;;;;;;;1.20;0.90;;;4.20;98.00;;;;;;5111778;28;20455;-66
2021/03/28 05:41:40;;;;;;;1.20;1.00;;;4.20;98.00;;;;;;5103767;28;20492;-65
2021/03/28 05:44:36;;;;;;;1.30;1.20;;;4.10;98.00;;;;;;5111893;28;20519;-65
2021/03/28 05:47:34;;;;;;;1.20;0.93;;;4.10;98.00;;;;;;5111784;28;20473;-66
2021/03/28 05:50:19;;;;;;;1.20;0.90;;;4.30;98.00;;;;;;5109995;28;20487;-66
2021/03/28 05:53:26;;;;;;;1.20;0.90;;;4.30;98.00;;;;;;5111923;28;20456;-66
2021/03/28 05:56:34;;;;;;;1.73;1.10;;;4.50;98.00;;;;;;5109479;28;20504;-66
2021/03/28 05:59:31;;;;;;;1.23;0.97;;;4.60;98.00;;;;;;5111972;28;20468;-66
2021/03/28 06:02:39;;;;;;;1.20;0.90;;;4.80;98.00;;;;;;5082690;28;20460;-66
2021/03/28 06:05:43;;;;;;;1.20;1.00;;;4.80;98.00;;;;;;5059286;28;20461;-66
2021/03/28 06:09:01;;;;;;;1.20;1.10;;;4.80;98.00;;;;;;5111795;28;20485;-65
2021/03/28 06:12:10;;;;;;;1.23;1.10;;;4.70;98.00;;;;;;5109670;28;20452;-65
2021/03/28 06:15:01;;;;;;;1.20;1.00;;;4.80;98.00;;;;;;5106278;28;20566;-67
2021/03/28 06:18:04;;;;;;;1.20;1.00;;;4.70;98.00;;;;;;5110932;28;20468;-66
2021/03/28 06:20:48;;;;;;;1.20;1.00;;;4.50;98.00;;;;;;5107190;28;20953;-65
2021/03/28 06:23:58;;;;;;;1.40;1.00;;;4.40;98.00;;;;;;5111244;28;20874;-66
2021/03/28 06:27:07;;;;;;;1.20;1.00;;;4.30;98.00;;;;;;5093262;28;20458;-65
2021/03/28 06:30:03;;;;;;;1.20;1.00;;;4.20;98.00;;;;;;5111814;28;20821;-65
2021/03/28 06:32:53;;;;;;;1.20;0.90;;;4.30;98.00;;;;;;5115418;28;20455;-66
2021/03/28 06:35:49;;;;;;;1.20;1.00;;;4.50;98.00;;;;;;5111061;28;20470;-66
2021/03/28 06:39:00;;;;;;;1.20;1.07;;;4.80;98.00;;;;;;5101972;28;21021;-66
2021/03/28 06:42:02;;;;;;;3.10;1.27;;;4.80;98.00;;;;;;5078220;28;20484;-66
2021/03/28 06:45:05;;;;;;;1.30;1.10;;;4.90;98.00;;;;;;5086463;28;20463;-66
2021/03/28 06:48:20;;;;;;;1.20;1.10;;;5.40;98.00;;;;;;5115309;28;20525;-65
2021/03/28 06:51:22;;;;;;;1.30;1.30;;;5.50;98.00;;;;;;5111851;28;20457;-67
2021/03/28 06:54:43;;;;;;;1.30;1.00;;;5.50;98.00;;;;;;5073611;27;20859;-66
2021/03/28 06:57:49;;;;;;;1.20;1.00;;;5.60;98.00;;;;;;5114966;28;20462;-65
2021/03/28 07:00:48;;;;;;;1.20;1.00;;;5.80;98.00;;;;;;5112820;28;20509;-66
2021/03/28 07:03:36;;;;;;;3.93;1.77;;;5.90;98.00;;;;;;5114913;28;20941;-67
2021/03/28 07:06:14;;;;;;;1.40;1.20;;;5.90;98.00;;;;;;5112597;28;20461;-65
2021/03/28 07:09:16;;;;;;;1.20;1.10;;;5.90;98.00;;;;;;5114964;28;20516;-66
2021/03/28 07:11:58;;;;;;;1.60;1.17;;;6.00;98.00;;;;;;5058580;28;20809;-66
2021/03/28 07:15:20;;;;;;;1.50;1.20;;;6.30;98.00;;;;;;5113277;28;20458;-70
2021/03/28 07:18:20;;;;;;;1.20;1.00;;;6.50;98.00;;;;;;5103891;28;21003;-67
2021/03/28 07:21:05;;;;;;;1.40;1.37;;;6.70;98.00;;;;;;5111865;28;20874;-66
2021/03/28 07:23:51;;;;;;;1.30;1.10;;;6.80;98.00;;;;;;5114466;28;20492;-66
2021/03/28 07:26:37;;;;;;;1.60;1.13;;;7.00;98.00;;;;;;5112079;28;20895;-66
2021/03/28 07:29:43;;;;;;;1.93;1.10;;;7.10;98.00;;;;;;5114358;28;20517;-66
2021/03/28 07:32:34;;;;;;;1.20;1.00;;;7.10;98.00;;;;;;5114297;28;20458;-66
2021/03/28 07:35:42;;;;;;;1.20;1.10;;;7.20;97.50;;;;;;5111904;28;20451;-66
2021/03/28 07:38:37;;;;;;;1.20;0.90;;;7.40;98.00;;;;;;5114157;28;20454;-65
2021/03/28 07:41:35;;;;;;;1.60;1.17;;;7.80;95.60;;;;;;5109778;28;20451;-66
2021/03/28 07:44:35;;;;;;;2.03;1.40;;;7.80;95.40;;;;;;5113702;28;20496;-66
2021/03/28 07:47:50;;;;;;;1.20;1.10;;;7.90;95.30;;;;;;5113672;28;20892;-65
2021/03/28 07:50:51;;;;;;;1.20;1.10;;;8.20;94.10;;;;;;5048628;28;20454;-66
2021/03/28 07:54:11;;;;;;;1.30;1.10;;;8.30;94.20;;;;;;5051046;28;20461;-66
2021/03/28 07:57:05;;;;;;;1.20;0.90;;;8.50;92.20;;;;;;5111315;28;20550;-66
2021/03/28 07:59:55;;;;;;;1.50;1.33;;;8.80;92.60;;;;;;5111579;28;20628;-66
2021/03/28 08:03:05;;;;;;;1.20;1.00;;;9.10;90.30;;;;;;5113797;28;20445;-66
2021/03/28 08:05:54;;;;;;;1.20;0.90;;;9.10;90.80;;;;;;5111316;28;20461;-66
2021/03/28 08:08:45;;;;;;;1.20;1.00;;;9.20;90.70;;;;;;5112474;28;20942;-65
2021/03/28 08:11:34;;;;;;;1.20;0.90;;;9.40;89.20;;;;;;5111035;28;20563;-66
2021/03/28 08:14:27;;;;;;;1.20;1.00;;;9.50;88.30;;;;;;5113767;28;20489;-66
2021/03/28 08:17:18;;;;;;;1.40;1.20;;;9.70;88.40;;;;;;5111419;28;20528;-65
2021/03/28 08:20:32;;;;;;;1.20;1.00;;;9.90;88.10;;;;;;5105654;28;20458;-66
2021/03/28 08:23:45;;;;;;;1.30;1.30;;;10.10;88.00;;;;;;5108084;28;20801;-66
2021/03/28 08:26:45;;;;;;;1.20;1.00;;;10.20;87.50;;;;;;5108679;28;20561;-65
2021/03/28 08:29:27;;;;;;;3.37;1.40;;;10.30;87.80;;;;;;5078821;28;20655;-65
2021/03/28 08:32:10;;;;;;;1.20;1.10;;;10.30;85.80;;;;;;5110186;28;20474;-65
2021/03/28 08:35:02;;;;;;;1.20;1.00;;;10.20;85.00;;;;;;5110585;28;20459;-65
2021/03/28 08:37:55;;;;;;;1.77;1.23;;;10.10;85.40;;;;;;5084380;28;20843;-66
2021/03/28 08:40:54;;;;;;;1.20;0.90;;;10.00;85.50;;;;;;5110230;28;20462;-66
2021/03/28 08:44:03;;;;;;;1.20;0.90;;;10.00;85.60;;;;;;5112027;28;20964;-66
2021/03/28 08:47:09;;;;;;;1.20;1.00;;;10.20;86.30;;;;;;5110070;28;20804;-66
2021/03/28 08:49:43;;;;;;;1.50;1.43;;;10.40;85.70;;;;;;5110938;28;20466;-65
2021/03/28 08:52:56;;;;;;;1.20;0.93;;;10.60;84.10;;;;;;5111735;28;20455;-65
2021/03/28 08:56:05;;;;;;;2.20;1.50;;;10.90;83.70;;;;;;5109562;28;20456;-65
2021/03/28 08:58:41;;;;;;;1.30;1.07;;;11.00;82.20;;;;;;5112418;28;20916;-66
2021/03/28 09:01:14;;;;;;;2.80;1.53;;;11.00;82.00;;;;;;5109582;28;20455;-66
2021/03/28 09:03:56;;;;;;;1.77;1.27;;;11.20;82.60;;;;;;5112046;28;20462;-66
2021/03/28 09:06:38;;;;;;;1.20;0.90;;;11.40;82.40;;;;;;5108644;28;20466;-66
2021/03/28 09:09:14;;;;;;;1.20;1.10;;;11.60;81.90;;;;;;5112052;28;20491;-66
2021/03/28 09:12:02;;;;;;;2.13;1.33;;;11.80;82.20;;;;;;5109311;28;20500;-66
2021/03/28 09:15:21;;;;;;;1.20;1.00;;;12.00;80.20;;;;;;5109999;28;20531;-65
2021/03/28 09:18:08;;;;;;;1.20;1.00;;;12.10;79.90;;;;;;5106564;28;20461;-66
2021/03/28 09:20:53;;;;;;;1.20;1.00;;;12.20;79.40;;;;;;5109479;28;20595;-66
2021/03/28 09:23:40;;;;;;;1.73;1.20;;;12.50;79.50;;;;;;5111735;28;20451;-65
2021/03/28 09:26:34;;;;;;;1.20;1.10;;;12.80;79.20;;;;;;5109561;28;20452;-66
2021/03/28 09:29:33;;;;;;;1.57;1.30;;;13.00;78.20;;;;;;5097647;28;20545;-65
2021/03/28 09:32:26;;;;;;;1.20;1.03;;;13.00;75.40;;;;;;5109191;28;20458;-65
2021/03/28 09:35:02;;;;;;;1.40;1.00;;;12.90;75.50;;;;;;5109073;28;20461;-66
2021/03/28 09:37:39;;;;;;;1.20;1.00;;;13.10;76.30;;;;;;5110312;28;20842;-66
2021/03/28 09:40:26;;;;;;;1.40;1.00;;;13.30;74.50;;;;;;5109362;28;20451;-65
2021/03/28 09:43:20;;;;;;;1.20;1.10;;;13.40;74.20;;;;;;5110322;28;20450;-64
2021/03/28 09:46:12;;;;;;;1.20;1.00;;;13.50;73.50;;;;;;5106718;28;20519;-66
2021/03/28 09:49:10;;;;;;;1.20;1.10;;;13.60;72.20;;;;;;5111261;28;21023;-66
2021/03/28 09:52:12;;;;;;;1.20;1.00;;;13.60;71.30;;;;;;5108766;28;20506;-65
2021/03/28 09:55:13;;;;;;;1.20;0.90;;;13.80;71.70;;;;;;5110781;28;20453;-67
2021/03/28 09:58:01;;;;;;;1.20;1.00;;;13.90;69.80;;;;;;5109852;28;20465;-67
2021/03/28 10:00:57;;;;;;;1.20;0.90;;;13.90;71.50;;;;;;5109339;28;20463;-67
2021/03/28 10:03:28;;;;;;;1.20;1.10;;;13.90;70.60;;;;;;5113230;28;20526;-66
2021/03/28 10:06:03;;;;;;;1.30;1.27;;;13.90;67.80;;;;;;5113395;28;20460;-67
2021/03/28 10:08:38;;;;;;;1.20;1.00;;;14.00;68.50;;;;;;5115285;28;20502;-66
2021/03/28 10:11:19;;;;;;;1.30;1.20;;;14.10;68.90;;;;;;5113738;28;20486;-66
2021/03/28 10:14:14;;;;;;;1.20;0.90;;;14.30;65.80;;;;;;5115365;28;21146;-66
2021/03/28 10:16:53;;;;;;;1.20;1.00;;;14.60;65.20;;;;;;5106629;28;20496;-66
2021/03/28 10:19:25;;;;;;;1.20;0.90;;;14.80;63.80;;;;;;5115046;28;20839;-66
2021/03/28 10:22:22;;;;;;;1.40;1.30;;;14.80;64.60;;;;;;5112895;28;20766;-66
2021/03/28 10:25:17;;;;;;;1.20;1.10;;;14.90;64.90;;;;;;5115095;28;20958;-66
2021/03/28 10:28:21;;;;;;;1.20;1.00;;;14.90;68.50;;;;;;5112631;28;20482;-66
2021/03/28 10:30:56;;;;;;;1.23;0.97;;;15.00;66.60;;;;;;5112990;28;20798;-66
2021/03/28 10:33:38;;;;;;;1.20;1.00;;;15.40;65.40;;;;;;5114540;28;20454;-66
2021/03/28 10:36:24;;;;;;;1.97;1.37;;;15.70;63.50;;;;;;5111544;28;20460;-66
2021/03/28 10:39:08;;;;;;;1.20;1.10;;;16.00;61.80;;;;;;5115020;28;20464;-66
2021/03/28 10:42:03;;;;;;;1.20;1.00;;;16.10;61.50;;;;;;5112331;28;20461;-66
2021/03/28 10:45:08;;;;;;;1.37;1.10;;;16.30;62.90;;;;;;5114926;28;20454;-66
2021/03/28 10:48:14;;;;;;;1.20;1.10;;;16.50;60.80;;;;;;5108208;28;20487;-67
2021/03/28 10:51:36;;;;;;;1.20;1.00;;;16.20;59.20;;;;;;5065484;28;20500;-67
2021/03/28 10:54:23;;;;;;;1.20;1.07;;;16.30;59.90;;;;;;5031366;28;21059;-66
2021/03/28 10:57:23;;;;;;;2.17;1.27;;;16.10;60.00;;;;;;5029130;28;20466;-66
2021/03/28 11:00:35;;;;;;;1.53;1.13;;;15.60;60.70;;;;;;5091272;28;20946;-67
2021/03/28 11:03:48;;;;;;;1.40;1.00;;;15.30;63.30;;;;;;5030811;28;20450;-66
2021/03/28 11:06:46;;;;;;;1.20;1.00;;;15.40;62.40;;;;;;5028412;28;20453;-67
2021/03/28 11:10:02;;;;;;;1.20;1.00;;;15.20;61.60;;;;;;5092121;28;20483;-68
2021/03/28 11:13:06;;;;;;;1.30;1.10;;;15.50;63.60;;;;;;5093522;28;20478;-66
2021/03/28 11:15:56;;;;;;;1.20;0.93;;;15.70;64.50;;;;;;5088430;28;20968;-66
2021/03/28 11:18:55;;;;;;;2.27;2.10;;;15.90;63.10;;;;;;5093820;28;20469;-68
2021/03/28 11:21:29;;;;;;;1.20;1.00;;;16.40;62.30;;;;;;5091026;28;20451;-67
2021/03/28 11:24:28;;;;;;;1.20;1.00;;;16.80;61.00;;;;;;5093604;28;20459;-66
2021/03/28 11:27:42;;;;;;;1.40;1.20;;;16.60;59.10;;;;;;5091290;28;20455;-67
2021/03/28 11:30:37;;;;;;;1.97;1.33;;;16.60;61.20;;;;;;5063347;28;20463;-67
2021/03/28 11:33:20;;;;;;;8.90;2.07;;;16.70;61.20;;;;;;5086639;28;20460;-67
2021/03/28 11:36:08;;;;;;;1.20;1.10;;;17.10;60.30;;;;;;5091349;28;20467;-69
2021/03/28 11:38:39;;;;;;;1.30;1.10;;;17.10;61.90;;;;;;5093565;28;20463;-67
2021/03/28 11:41:42;;;;;;;1.20;1.00;;;17.30;61.70;;;;;;5091169;28;20459;-67
2021/03/28 11:44:37;;;;;;;1.20;1.00;;;17.00;61.70;;;;;;5093514;28;20456;-66
2021/03/28 11:47:30;;;;;;;1.20;1.00;;;17.00;60.60;;;;;;5090535;28;20464;-67
2021/03/28 11:50:06;;;;;;;1.20;1.00;;;17.10;59.10;;;;;;5093325;28;20470;-66
2021/03/28 11:52:51;;;;;;;1.20;1.00;;;17.20;60.90;;;;;;5090458;28;20497;-67
2021/03/28 11:55:39;;;;;;;1.20;1.00;;;17.20;61.30;;;;;;5091064;28;20979;-66
2021/03/28 11:58:46;;;;;;;1.93;1.27;;;17.10;62.20;;;;;;5093105;28;20452;-66
2021/03/28 12:01:52;;;;;;;1.20;0.97;;;17.20;62.60;;;;;;5090353;28;20456;-67
2021/03/28 12:04:27;;;;;;;1.20;0.90;;;17.40;58.80;;;;;;5092617;28;20467;-67
2021/03/28 12:06:59;;;;;;;1.20;1.07;;;17.60;66.00;;;;;;5090653;28;20969;-67
2021/03/28 12:09:29;;;;;;;1.40;1.20;;;18.00;63.30;;;;;;5092721;28;20475;-65
2021/03/28 12:12:00;;;;;;;1.20;1.10;;;17.50;59.30;;;;;;5089407;28;20452;-67
2021/03/28 12:14:34;;;;;;;1.30;1.00;;;17.30;61.40;;;;;;5091978;28;20539;-66
2021/03/28 12:17:25;;;;;;;3.80;1.13;;;17.10;60.90;;;;;;5089758;28;20456;-66
2021/03/28 12:20:25;;;;;;;1.30;1.13;;;16.90;60.80;;;;;;5092278;28;20480;-66
2021/03/28 12:22:59;;;;;;;1.20;1.00;;;16.60;62.70;;;;;;5092232;28;20880;-66
2021/03/28 12:25:34;;;;;;;1.20;0.97;;;16.50;62.30;;;;;;5090056;28;20502;-66
2021/03/28 12:28:28;;;;;;;1.23;1.17;;;16.50;60.90;;;;;;5091695;28;20487;-67
2021/03/28 12:30:56;;;;;;;1.20;1.00;;;16.60;63.00;;;;;;5090155;28;20462;-66
2021/03/28 12:33:44;;;;;;;1.60;1.00;;;16.80;61.00;;;;;;5092155;28;20452;-66
2021/03/28 12:36:13;;;;;;;2.00;1.30;;;16.90;62.20;;;;;;5089866;28;20471;-66
2021/03/28 12:38:52;;;;;;;1.20;1.10;;;16.80;60.30;;;;;;5092201;28;20456;-64
2021/03/28 12:41:31;;;;;;;1.20;1.10;;;16.90;61.30;;;;;;5088828;28;20463;-65
2021/03/28 12:44:19;;;;;;;1.30;1.10;;;16.90;61.70;;;;;;5091875;28;20498;-64
2021/03/28 12:46:57;;;;;;;1.30;1.10;;;16.80;61.00;;;;;;5089256;28;20487;-67
2021/03/28 12:49:31;;;;;;;1.60;1.20;;;16.70;60.00;;;;;;5092246;28;20492;-67
2021/03/28 12:52:20;;;;;;;1.53;1.30;;;16.90;62.70;;;;;;5090044;28;20454;-66
2021/03/28 12:55:15;;;;;;;1.20;1.07;;;17.20;62.70;;;;;;5092403;28;20474;-66
2021/03/28 12:57:45;;;;;;;1.60;1.20;;;17.40;60.50;;;;;;5089799;28;20596;-66
2021/03/28 13:00:33;;;;;;;1.50;1.30;;;17.50;60.50;;;;;;5091136;28;20460;-66
2021/03/28 13:03:27;;;;;;;1.50;1.23;;;17.60;60.20;;;;;;5091122;28;20479;-66
2021/03/28 13:06:17;;;;;;;1.70;1.40;;;17.80;58.50;;;;;;5079799;28;20491;-66
2021/03/28 13:08:49;;;;;;;1.20;1.10;;;17.90;58.50;;;;;;5087875;28;20487;-66
2021/03/28 13:11:25;;;;;;;1.47;1.20;;;18.10;59.70;;;;;;5088521;28;20464;-66
2021/03/28 13:13:53;;;;;;;1.30;1.20;;;18.40;59.20;;;;;;5091367;28;20458;-66
2021/03/28 13:16:24;;;;;;;1.57;1.33;;;18.60;57.80;;;;;;5089452;28;20448;-66
2021/03/28 13:18:52;;;;;;;1.30;1.00;;;18.60;58.10;;;;;;5091417;28;20475;-66
2021/03/28 13:21:22;;;;;;;2.27;1.10;;;18.70;57.90;;;;;;5089452;28;20451;-66
2021/03/28 13:24:04;;;;;;;1.70;1.17;;;18.60;57.80;;;;;;5091370;28;20460;-66
2021/03/28 13:26:32;;;;;;;1.23;1.20;;;18.70;58.40;;;;;;5089531;28;20829;-66
2021/03/28 13:29:21;;;;;;;1.40;1.20;;;18.80;57.40;;;;;;5091083;28;20634;-66
2021/03/28 13:31:56;;;;;;;1.20;1.20;;;18.60;58.40;;;;;;5088044;28;20543;-66
2021/03/28 13:34:32;;;;;;;1.20;1.10;;;18.90;57.60;;;;;;5091089;28;20487;-66
2021/03/28 13:37:06;;;;;;;3.73;1.30;;;19.10;58.20;;;;;;5088961;28;20532;-66
2021/03/28 13:39:37;;;;;;;3.40;1.73;;;19.40;56.70;;;;;;5091072;28;20467;-66
2021/03/28 13:42:20;;;;;;;1.20;1.00;;;19.70;56.00;;;;;;5089101;28;20974;-66
2021/03/28 13:44:54;;;;;;;1.30;1.10;;;19.90;56.20;;;;;;5089514;28;20836;-66
2021/03/28 13:47:38;;;;;;;1.20;1.10;;;20.10;55.90;;;;;;5088879;28;20525;-66
2021/03/28 13:50:34;;;;;;;1.30;1.20;;;20.60;53.90;;;;;;5090638;28;20440;-66
2021/03/28 13:53:04;;;;;;;1.60;1.17;;;20.80;54.30;;;;;;5089946;28;20468;-66
2021/03/28 13:55:37;;;;;;;1.20;1.10;;;21.00;54.00;;;;;;5090828;28;20464;-66
2021/03/28 13:58:21;;;;;;;1.40;1.30;;;21.00;52.70;;;;;;5090754;28;20509;-66
2021/03/28 14:00:53;;;;;;;1.30;1.10;;;20.90;53.10;;;;;;5088409;28;20455;-66
2021/03/28 14:03:28;;;;;;;1.20;1.10;;;21.10;55.30;;;;;;5090499;28;20459;-66
2021/03/28 14:05:58;;;;;;;1.40;1.00;;;21.10;52.00;;;;;;5088466;28;20468;-66
2021/03/28 14:08:27;;;;;;;1.30;1.20;;;20.90;52.20;;;;;;5090639;28;20984;-66
2021/03/28 14:10:57;;;;;;;2.23;1.20;;;21.10;53.10;;;;;;5087544;28;20471;-66
2021/03/28 14:13:28;;;;;;;1.20;1.03;;;21.20;54.50;;;;;;5090647;28;20480;-66
2021/03/28 14:16:08;;;;;;;1.40;1.20;;;21.50;53.20;;;;;;5087364;28;20455;-66
2021/03/28 14:18:38;;;;;;;1.30;1.10;;;21.90;52.10;;;;;;5090647;28;20930;-66
2021/03/28 14:21:30;;;;;;;1.20;1.10;;;21.90;51.10;;;;;;5088467;28;20961;-66
2021/03/28 14:24:07;;;;;;;1.20;1.20;;;21.70;51.10;;;;;;5089532;28;20460;-66
2021/03/28 14:26:46;;;;;;;1.40;1.30;;;21.50;51.40;;;;;;5088811;28;20973;-66
2021/03/28 14:29:25;;;;;;;2.27;1.20;;;21.40;50.10;;;;;;5090503;28;20484;-66
2021/03/28 14:32:00;;;;;;;1.40;1.23;;;21.10;50.10;;;;;;5088689;28;20479;-66
2021/03/28 14:34:56;;;;;;;2.43;1.40;;;21.20;50.30;;;;;;5090455;28;20513;-66
2021/03/28 14:37:50;;;;;;;1.20;1.10;;;21.20;51.90;;;;;;5088535;28;20462;-66
2021/03/28 14:40:39;;;;;;;1.57;1.53;;;21.40;49.40;;;;;;5077260;28;20509;-66
2021/03/28 14:43:33;;;;;;;1.47;1.30;;;21.30;48.90;;;;;;5089390;28;20457;-66